Погода METAR - Красноярск

Кемерово, Абакан, Красноярск, Новосибирск
Код METAR: UNKL 191700Z 00000MPS 9000 NSC M21/M23 Q1024 R29/350145 NOSIG RMK QFE742

Погода - Сейчас

Время: 2022-01-20 00:00, местное
Направление ветра: Штиль
Скорость ветра: 0 м/с
Видимость:
Температура: -21°C
Точка росы: -23°C
Атмосферное давление: 1024 гПа

Архив погоды

Время, местное Направление Скорость, м/с Температура, °C Точка росы, °C Давление, гПа
2022-01-20 00:00 Штиль 0 -21 -23 1024
2022-01-19 12:00 ЗЮЗ (250°) 4 -11 -13 1026
2022-01-19 09:30 Переменный 1 -17 -19 1026
2022-01-19 05:00 Штиль 0 -15 -16 1025
2022-01-18 23:00 Штиль 0 -8 -12 1025
2022-01-18 01:00 ЗСЗ (290°) 1 -3 -3 1016
2022-01-18 00:30 З (270°) 1 -3 -3 1015
2022-01-17 19:00 ЮЗ (220°) 2 0 -3 1015
2022-01-15 18:30 Штиль 0 -25 -27 1020
2022-01-15 13:00 Штиль 0 -22 -25 1021
2022-01-15 08:00 Штиль 0 -28 -31 1023
2022-01-13 19:00 Штиль 0 -24 -26 1024
2022-01-12 18:30 СЗ (300°) 2 -11 -13 1017
2022-01-12 09:30 ЗЮЗ (250°) 4 -10 -19 1020
2022-01-12 03:00 ЗЮЗ (250°) 4 -9 -18 1022
2022-01-11 16:00 ЮЮЗ (200°) 5 -9 -17 1028
2022-01-11 06:00 ВСВ (60°) 2 -10 -16 1034
2022-01-10 12:00 ЗЮЗ (260°) 8, порывы до 15 0 1800
2022-01-10 03:00 ЗЮЗ (250°) 5 -3 -6 1017
2022-01-09 12:00 ЮЮЗ (200°) 6 -2 -10 1019
2022-01-08 16:30 Штиль 0 -20 -22 1030
2022-01-08 14:30 Штиль 0 -17 -20 1031
2022-01-08 11:30 Штиль 0 -22 -25 1032
2022-01-07 17:00 Переменный 1 -20 -22 1035
2022-01-07 11:00 ЮВ (130°) 1 -20 -22 1035
2022-01-06 02:00 ЗЮЗ (240°) 3 -3 -7 1019
2022-01-06 01:30 ЗЮЗ (250°) 4 -3 -7 1019
2022-01-06 00:30 ЗЮЗ (260°) 3 -3 -5 1018
2022-01-05 21:30 ЗЮЗ (240°) 4 -1 -6 1017
2022-01-05 15:00 ЮЗ (210°) 3 1 -8 1012
2022-01-05 14:30 Ю (190°) 3 1 -9 1012
2022-01-04 05:00 ЗСЗ (290°) 1 -14 -15 1012
2022-01-04 00:00 Штиль 0 -10 -12 1014
2022-01-03 14:00 З (270°) 5 -5 -11 1015
2022-01-02 23:00 ЗЮЗ (240°) 2 -10 -15 1017
2022-01-02 18:30 ЮЗ (230°) 2 -9 -16 1017
2022-01-02 15:00 Переменный 1 -9 -15 1018
2022-01-02 11:00 В (90°) 1 -14 -17 1020
2022-01-01 16:30 ЗЮЗ (250°) 5 -10 -15 1022
2022-01-01 05:00 З (270°) 3 -14 -17 1026
2022-01-01 00:00 З (270°) 5 -14 -18 1028
2021-12-31 23:00 З (270°) 4 -13 -17 1028
2021-12-31 14:00 ЗЮЗ (240°) 6 -14 -19 1031
2021-12-31 09:00 ЗЮЗ (250°) 2 -17 -21 1033
2021-12-30 21:00 ЗЮЗ (260°) 8 -12 -16 1025
2021-12-30 11:00 ЮЮЗ (200°) 2 -9 -11 1019
2021-12-30 08:00 ЮЮЗ (200°) 2 -8 -10 1019
2021-12-29 22:00 ЮЮВ (160°) 4 -12 -13 1022